ENKB

Kristiansund , Kvernberget Airport

Kvernberget, Norway
TAF ENKB 170200Z 1703/1712 VRB06KT 9999 FEW015TCU BKN030 TEMPO 1708/1712 01012KT 1000 SHSN VV007
Issued Valid From Valid To
Jan-17 @ 02:00 UTC
(3 hours ago)
Jan-17 @ 03:00 UTC
(2 hours ago)
Jan-17 @ 12:00 UTC
(in 7 hours)
Jan-17 @ 03:00 to Jan-17 @ 12:00
TAF ENKB 170200Z 1703/1712 VRB06KT 9999 FEW015TCU BKN030
Wind Visibility Clouds
Variable at 6 knots 10,000+ meters
  • Few at 1,500' AGL
  • Broken at 3,000' AGL
Temporary Jan-17 @ 08:00 to Jan-17 @ 12:00
TEMPO 1708/1712 01012KT 1000 SHSN VV007
Wind Visibility Clouds Conditions
10° at 12 knots 998 meters
  • Vertical visibility at 700' AGL
  • Snow
TAF ENKB 170200Z 1703/1712 VRB06KT 9999 FEW015TCU BKN030 TEMPO 1708/1712 01012KT 1000 SHSN VV007
Issued Jan-17 @ 02:00 UTC
(3 hours ago)
Valid From Jan-17 @ 03:00 UTC
(2 hours ago)
Valid To Jan-17 @ 12:00 UTC
(in 7 hours)
Jan-17 @ 03:00 - Jan-17 @ 12:00
Wind Visibility
Variable at 6 knots 10,000+ meters
Clouds
  • Few at 1,500' AGL
  • Broken at 3,000' AGL
Temporary Jan-17 @ 08:00 - Jan-17 @ 12:00
Wind Visibility
10° at 12 knots 998 meters
Clouds
  • Vertical visibility at 700' AGL
Conditions
  • Snow